createdAt,value
2019-01-12T00:01:14.479Z,7.50
2019-01-12T00:03:40.957Z,8.10
2019-01-12T00:06:07.608Z,7.80
2019-01-12T00:08:34.091Z,7.50
2019-01-12T00:11:00.556Z,7.40
2019-01-12T00:13:27.013Z,7.70
2019-01-12T00:15:53.471Z,7.50
2019-01-12T00:18:20.253Z,7.50
2019-01-12T00:20:46.692Z,7.80
2019-01-12T00:23:13.150Z,7.50
2019-01-12T00:25:39.720Z,8.00
2019-01-12T00:28:06.365Z,7.50
2019-01-12T00:30:33.041Z,7.50
2019-01-12T00:32:59.843Z,8.00
2019-01-12T00:35:26.315Z,7.80
2019-01-12T00:37:52.755Z,7.50
2019-01-12T00:40:19.200Z,7.80
2019-01-12T00:42:45.784Z,7.70
2019-01-12T00:45:12.733Z,7.90
2019-01-12T00:47:39.404Z,8.10
2019-01-12T00:50:12.344Z,7.80
2019-01-12T00:52:38.824Z,7.70
2019-01-12T00:55:05.667Z,7.40
2019-01-12T00:57:32.147Z,7.70
2019-01-12T00:59:58.593Z,8.00
2019-01-12T01:02:25.188Z,7.70
2019-01-12T01:04:51.643Z,7.90
2019-01-12T01:07:18.184Z,8.00
2019-01-12T01:09:44.764Z,7.40
2019-01-12T01:12:11.328Z,8.00
2019-01-12T01:14:37.843Z,7.80
2019-01-12T01:17:04.307Z,7.50
2019-01-12T01:19:30.984Z,7.70
2019-01-12T01:21:57.476Z,7.60
2019-01-12T01:24:23.944Z,7.50
2019-01-12T01:26:50.403Z,8.00
2019-01-12T01:29:17.111Z,7.60
2019-01-12T01:31:43.688Z,7.40
2019-01-12T01:34:10.136Z,7.40
2019-01-12T01:36:36.596Z,7.70
2019-01-12T01:39:05.841Z,7.50
2019-01-12T01:41:32.617Z,7.40
2019-01-12T01:43:58.980Z,7.40
2019-01-12T01:46:25.424Z,7.40
2019-01-12T01:48:51.895Z,7.40
2019-01-12T01:51:18.456Z,7.40
2019-01-12T01:53:44.923Z,7.50
2019-01-12T01:56:11.391Z,7.20
2019-01-12T01:58:38.828Z,7.60
2019-01-12T02:01:05.280Z,7.70
2019-01-12T02:03:31.719Z,7.50
2019-01-12T02:05:58.100Z,7.10
2019-01-12T02:08:24.540Z,7.10
2019-01-12T02:10:51.007Z,7.10
2019-01-12T02:13:17.387Z,7.20
2019-01-12T02:15:44.062Z,7.30
2019-01-12T02:18:10.868Z,7.20
2019-01-12T02:20:37.349Z,7.30
2019-01-12T02:23:04.004Z,7.10
2019-01-12T02:25:30.592Z,7.10
2019-01-12T02:27:57.424Z,7.10
2019-01-12T02:30:24.134Z,7.10
2019-01-12T02:32:50.643Z,7.10
2019-01-12T02:35:16.996Z,7.00
2019-01-12T02:37:43.573Z,7.00
2019-01-12T02:40:10.217Z,7.30
2019-01-12T02:42:36.848Z,7.10
2019-01-12T02:45:06.566Z,7.10
2019-01-12T02:47:33.246Z,7.30
2019-01-12T02:49:59.810Z,7.10
2019-01-12T02:52:26.308Z,7.20
2019-01-12T02:54:52.956Z,7.30
2019-01-12T02:57:19.465Z,7.00
2019-01-12T02:59:46.161Z,7.20
2019-01-12T03:02:13.253Z,7.30
2019-01-12T03:04:39.843Z,7.10
2019-01-12T03:07:06.505Z,7.30
2019-01-12T03:09:33.076Z,6.90
2019-01-12T03:11:59.552Z,7.00
2019-01-12T03:14:26.441Z,7.10
2019-01-12T03:16:52.885Z,7.30
2019-01-12T03:19:19.607Z,7.10
2019-01-12T03:21:46.037Z,7.30
2019-01-12T03:24:12.500Z,7.10
2019-01-12T03:26:38.849Z,7.00
2019-01-12T03:29:05.298Z,7.30
2019-01-12T03:31:31.973Z,7.10
2019-01-12T03:33:58.425Z,7.10
2019-01-12T03:36:24.892Z,7.00
2019-01-12T03:38:51.461Z,7.30
2019-01-12T03:41:17.934Z,7.30
2019-01-12T03:43:44.589Z,7.00
2019-01-12T03:46:11.512Z,6.80
2019-01-12T03:48:37.965Z,6.90
2019-01-12T03:51:04.440Z,7.00
2019-01-12T03:53:31.174Z,7.30
2019-01-12T03:55:57.653Z,7.20
2019-01-12T03:58:24.205Z,6.80
2019-01-12T04:00:50.679Z,7.00
2019-01-12T04:03:17.129Z,7.10
2019-01-12T04:05:43.597Z,6.80
2019-01-12T04:08:10.060Z,7.20
2019-01-12T04:10:36.492Z,7.30
2019-01-12T04:13:03.193Z,7.10
2019-01-12T04:15:29.932Z,7.10
2019-01-12T04:17:56.495Z,6.90
2019-01-12T04:20:23.118Z,6.90
2019-01-12T04:22:49.794Z,6.80
2019-01-12T04:25:16.323Z,6.90
2019-01-12T04:27:42.877Z,6.90
2019-01-12T04:30:11.772Z,6.80
2019-01-12T04:32:38.215Z,7.00
2019-01-12T04:35:05.691Z,7.00
2019-01-12T04:37:32.533Z,7.10
2019-01-12T04:39:59.114Z,7.00
2019-01-12T04:42:25.568Z,7.00
2019-01-12T04:44:52.229Z,7.00
2019-01-12T04:47:18.788Z,7.00
2019-01-12T04:49:45.603Z,7.00
2019-01-12T04:52:12.074Z,7.30
2019-01-12T04:54:38.509Z,6.80
2019-01-12T04:57:05.264Z,7.10
2019-01-12T04:59:31.702Z,7.20
2019-01-12T05:01:58.220Z,6.80
2019-01-12T05:04:24.671Z,7.00
2019-01-12T05:06:51.378Z,6.70
2019-01-12T05:09:17.929Z,6.80
2019-01-12T05:11:44.506Z,7.00
2019-01-12T05:14:11.149Z,6.80
2019-01-12T05:16:37.700Z,6.80
2019-01-12T05:19:04.424Z,7.00
2019-01-12T05:21:31.076Z,7.00
2019-01-12T05:23:57.553Z,7.10
2019-01-12T05:26:24.094Z,6.60
2019-01-12T05:28:50.573Z,6.90
2019-01-12T05:31:17.029Z,6.80
2019-01-12T05:33:43.497Z,6.40
2019-01-12T05:36:10.037Z,6.50
2019-01-12T05:38:36.582Z,7.00
2019-01-12T05:41:03.530Z,6.80
2019-01-12T05:43:30.063Z,6.70
2019-01-12T05:45:56.545Z,6.50
2019-01-12T05:48:23.089Z,6.50
2019-01-12T05:50:49.675Z,6.70
2019-01-12T05:53:16.115Z,6.90
2019-01-12T05:55:42.680Z,6.80
2019-01-12T05:58:09.125Z,6.40
2019-01-12T06:00:35.804Z,6.50
2019-01-12T06:03:02.586Z,6.60
2019-01-12T06:05:29.148Z,6.80
2019-01-12T06:07:55.696Z,6.50
2019-01-12T06:10:22.245Z,7.00
2019-01-12T06:12:48.616Z,6.50
2019-01-12T06:15:15.262Z,6.70
2019-01-12T06:17:41.967Z,6.40
2019-01-12T06:20:11.784Z,6.40
2019-01-12T06:22:38.381Z,6.80
2019-01-12T06:25:05.030Z,6.60
2019-01-12T06:27:31.500Z,6.80
2019-01-12T06:29:58.802Z,6.60
2019-01-12T06:32:25.567Z,6.60
2019-01-12T06:34:51.929Z,6.60
2019-01-12T06:37:18.501Z,6.80
2019-01-12T06:39:45.043Z,6.40
2019-01-12T06:42:11.444Z,6.40
2019-01-12T06:44:37.884Z,6.50
2019-01-12T06:47:04.335Z,6.40
2019-01-12T06:49:31.664Z,6.60
2019-01-12T06:51:58.011Z,6.60
2019-01-12T06:54:24.493Z,6.80
2019-01-12T06:56:50.935Z,6.40
2019-01-12T06:59:17.451Z,6.50
2019-01-12T07:01:43.892Z,6.60
2019-01-12T07:04:10.296Z,6.50
2019-01-12T07:06:36.744Z,6.40
2019-01-12T07:09:05.512Z,6.50
2019-01-12T07:11:31.952Z,6.50
2019-01-12T07:13:58.328Z,6.50
2019-01-12T07:16:24.782Z,6.40
2019-01-12T07:18:51.351Z,6.60
2019-01-12T07:21:17.800Z,6.40
2019-01-12T07:23:44.248Z,6.80
2019-01-12T07:26:17.386Z,6.90
2019-01-12T07:28:39.354Z,6.60
2019-01-12T07:31:05.927Z,6.50
2019-01-12T07:33:32.472Z,6.90
2019-01-12T07:35:58.944Z,6.80
2019-01-12T07:38:25.293Z,6.80
2019-01-12T07:40:51.863Z,6.80
2019-01-12T07:43:18.316Z,6.90
2019-01-12T07:45:44.777Z,6.80
2019-01-12T07:48:11.121Z,6.70
2019-01-12T07:50:37.877Z,6.80
2019-01-12T07:53:04.415Z,6.90
2019-01-12T07:55:30.861Z,6.90
2019-01-12T07:57:57.335Z,6.70
2019-01-12T08:00:23.876Z,6.70
2019-01-12T08:02:50.842Z,6.70
2019-01-12T08:05:18.091Z,7.00
2019-01-12T08:07:44.806Z,6.70
2019-01-12T08:10:17.429Z,6.80
2019-01-12T08:12:44.369Z,7.00
2019-01-12T08:15:11.110Z,6.80
2019-01-12T08:17:37.684Z,6.40
2019-01-12T08:20:06.546Z,6.70
2019-01-12T08:22:33.221Z,6.80
2019-01-12T08:24:59.674Z,6.60
2019-01-12T08:27:26.178Z,6.40
2019-01-12T08:29:52.728Z,6.50
2019-01-12T08:32:19.280Z,6.60
2019-01-12T08:34:45.853Z,6.70
2019-01-12T08:37:12.305Z,6.50
2019-01-12T08:39:38.877Z,6.90
2019-01-12T08:42:05.425Z,6.50
2019-01-12T08:44:31.894Z,6.60
2019-01-12T08:46:58.532Z,6.70
2019-01-12T08:49:25.024Z,6.70
2019-01-12T08:51:51.567Z,6.40
2019-01-12T08:54:18.414Z,6.70
2019-01-12T08:56:44.872Z,6.80
2019-01-12T08:59:13.237Z,6.70
2019-01-12T09:01:39.676Z,6.90
2019-01-12T09:04:06.283Z,6.80
2019-01-12T09:06:32.984Z,7.00
2019-01-12T09:08:59.465Z,6.80
2019-01-12T09:11:26.003Z,6.80
2019-01-12T09:13:52.480Z,6.80
2019-01-12T09:16:18.924Z,6.90
2019-01-12T09:18:45.370Z,7.00
2019-01-12T09:21:12.115Z,7.10
2019-01-12T09:23:38.467Z,6.80
2019-01-12T09:26:05.296Z,6.90
2019-01-12T09:28:31.644Z,6.90
2019-01-12T09:30:58.039Z,6.90
2019-01-12T09:33:27.364Z,7.10
2019-01-12T09:35:54.038Z,7.00
2019-01-12T09:38:20.688Z,7.30
2019-01-12T09:40:47.158Z,7.10
2019-01-12T09:43:13.600Z,7.10
2019-01-12T09:45:40.072Z,7.10
2019-01-12T09:48:06.916Z,7.10
2019-01-12T09:50:33.565Z,7.10
2019-01-12T09:53:00.023Z,7.10
2019-01-12T09:55:26.476Z,7.10
2019-01-12T09:57:53.137Z,7.10
2019-01-12T10:00:23.353Z,7.40
2019-01-12T10:02:50.119Z,7.10
2019-01-12T10:05:16.760Z,7.10
2019-01-12T10:07:43.434Z,7.40
2019-01-12T10:10:12.889Z,7.10
2019-01-12T10:12:39.567Z,7.40
2019-01-12T10:15:07.508Z,7.10
2019-01-12T10:17:33.960Z,7.20
2019-01-12T10:20:00.904Z,7.30
2019-01-12T10:22:28.653Z,7.20
2019-01-12T10:24:55.254Z,7.60
2019-01-12T10:27:22.069Z,7.20
2019-01-12T10:29:48.545Z,7.20
2019-01-12T10:32:15.091Z,7.30
2019-01-12T10:34:41.684Z,7.40
2019-01-12T10:37:08.158Z,7.20
2019-01-12T10:39:34.800Z,7.30
2019-01-12T10:42:01.148Z,7.20
2019-01-12T10:44:27.610Z,7.60
2019-01-12T10:46:54.177Z,7.40
2019-01-12T10:49:20.627Z,7.10
2019-01-12T10:51:47.088Z,7.50
2019-01-12T10:54:13.446Z,7.10
2019-01-12T10:56:40.212Z,7.50
2019-01-12T10:59:06.660Z,7.50
2019-01-12T11:01:33.353Z,7.50
2019-01-12T11:03:59.696Z,7.50
2019-01-12T11:06:26.272Z,7.60
2019-01-12T11:08:53.220Z,7.50
2019-01-12T11:11:19.680Z,7.50
2019-01-12T11:13:46.341Z,7.40
2019-01-12T11:16:13.003Z,7.60
2019-01-12T11:18:39.666Z,7.40
2019-01-12T11:21:06.237Z,7.40
2019-01-12T11:23:32.780Z,7.40
2019-01-12T11:25:59.337Z,7.50
2019-01-12T11:28:26.182Z,7.70
2019-01-12T11:30:52.528Z,8.00
2019-01-12T11:33:19.110Z,7.70
2019-01-12T11:35:45.942Z,8.00
2019-01-12T11:38:12.509Z,7.70
2019-01-12T11:40:39.059Z,7.90
2019-01-12T11:43:05.812Z,8.00
2019-01-12T11:45:32.371Z,7.80
2019-01-12T11:47:59.076Z,7.80
2019-01-12T11:50:25.633Z,7.80
2019-01-12T11:52:52.122Z,7.80
2019-01-12T11:55:18.960Z,7.80
2019-01-12T11:57:45.523Z,7.60
2019-01-12T12:00:18.602Z,7.70
2019-01-12T12:02:45.373Z,7.80
2019-01-12T12:05:14.092Z,7.50
2019-01-12T12:07:41.109Z,7.50
2019-01-12T12:10:12.601Z,7.50
2019-01-12T12:12:39.131Z,7.50
2019-01-12T12:15:15.629Z,7.70
2019-01-12T12:17:41.997Z,7.40
2019-01-12T12:20:12.260Z,7.50
2019-01-12T12:22:38.813Z,7.10
2019-01-12T12:25:05.484Z,7.10
2019-01-12T12:27:31.932Z,7.10
2019-01-12T12:30:01.772Z,7.40
2019-01-12T12:32:28.238Z,7.40
2019-01-12T12:34:54.705Z,7.40
2019-01-12T12:37:21.260Z,7.40
2019-01-12T12:39:47.840Z,7.10
2019-01-12T12:42:14.302Z,7.10
2019-01-12T12:44:40.770Z,7.10
2019-01-12T12:47:07.223Z,7.30
2019-01-12T12:49:33.872Z,7.10
2019-01-12T12:52:00.452Z,6.90
2019-01-12T12:54:27.159Z,7.40
2019-01-12T12:56:53.831Z,6.70
2019-01-12T12:59:20.293Z,6.80
2019-01-12T13:01:46.999Z,6.70
2019-01-12T13:04:13.441Z,6.80
2019-01-12T13:06:40.012Z,7.00
2019-01-12T13:09:06.866Z,6.70
2019-01-12T13:11:33.709Z,6.80
2019-01-12T13:14:00.168Z,7.00
2019-01-12T13:16:26.732Z,6.80
2019-01-12T13:18:53.281Z,6.90
2019-01-12T13:21:19.831Z,6.70
2019-01-12T13:23:46.584Z,6.80
2019-01-12T13:26:13.036Z,6.90
2019-01-12T13:28:39.440Z,6.80
2019-01-12T13:31:06.751Z,6.80
2019-01-12T13:33:35.121Z,7.30
2019-01-12T13:36:04.359Z,7.00
2019-01-12T13:38:30.842Z,7.30
2019-01-12T13:40:57.285Z,7.20
2019-01-12T13:43:23.773Z,7.30
2019-01-12T13:45:50.208Z,6.90
2019-01-12T13:48:16.592Z,7.30
2019-01-12T13:50:43.143Z,7.10
2019-01-12T13:53:09.894Z,7.10
2019-01-12T13:55:36.573Z,7.20
2019-01-12T13:58:03.316Z,7.00
2019-01-12T14:00:31.728Z,7.30
2019-01-12T14:02:58.388Z,7.10
2019-01-12T14:05:27.952Z,7.20
2019-01-12T14:07:56.605Z,7.30
2019-01-12T14:10:23.424Z,7.10
2019-01-12T14:12:49.968Z,7.10
2019-01-12T14:15:17.826Z,7.10
2019-01-12T14:17:44.386Z,7.10
2019-01-12T14:20:14.772Z,7.10
2019-01-12T14:22:41.325Z,7.10
2019-01-12T14:25:07.964Z,7.20
2019-01-12T14:27:34.576Z,7.10
2019-01-12T14:30:01.338Z,7.40
2019-01-12T14:32:28.076Z,7.30
2019-01-12T14:34:54.515Z,7.10
2019-01-12T14:37:21.122Z,7.10
2019-01-12T14:39:47.568Z,7.60
2019-01-12T14:42:13.943Z,7.40
2019-01-12T14:44:40.492Z,7.40
2019-01-12T14:47:07.206Z,7.40
2019-01-12T14:49:33.708Z,7.40
2019-01-12T14:52:00.247Z,7.40
2019-01-12T14:54:27.036Z,7.40
2019-01-12T14:56:53.716Z,7.60
2019-01-12T14:59:20.189Z,7.40
2019-01-12T15:01:46.750Z,7.40
2019-01-12T15:04:13.218Z,7.50
2019-01-12T15:06:39.881Z,7.60
2019-01-12T15:09:06.641Z,7.60
2019-01-12T15:11:33.094Z,7.40
2019-01-12T15:13:59.942Z,7.60
2019-01-12T15:16:26.480Z,7.50
2019-01-12T15:18:53.055Z,7.50
2019-01-12T15:21:19.468Z,7.70
2019-01-12T15:23:46.057Z,7.40
2019-01-12T15:26:12.595Z,7.50
2019-01-12T15:28:39.045Z,7.50
2019-01-12T15:31:05.426Z,7.40
2019-01-12T15:33:32.269Z,7.40
2019-01-12T15:35:58.964Z,7.60
2019-01-12T15:38:25.421Z,7.50
2019-01-12T15:40:52.273Z,7.50
2019-01-12T15:43:18.834Z,7.50
2019-01-12T15:45:45.303Z,7.40
2019-01-12T15:48:11.866Z,7.50
2019-01-12T15:50:38.432Z,7.50
2019-01-12T15:53:05.340Z,7.50
2019-01-12T15:55:31.693Z,7.60
2019-01-12T15:57:58.323Z,7.40
2019-01-12T16:00:26.381Z,8.00
2019-01-12T16:02:53.256Z,7.50
2019-01-12T16:05:19.817Z,7.60
2019-01-12T16:07:46.384Z,7.40
2019-01-12T16:10:13.942Z,8.00
2019-01-12T16:12:40.517Z,7.70
2019-01-12T16:15:10.523Z,7.60
2019-01-12T16:17:37.156Z,7.70
2019-01-12T16:20:07.304Z,7.90
2019-01-12T16:22:33.752Z,8.00
2019-01-12T16:25:00.262Z,7.70
2019-01-12T16:27:32.379Z,8.00
2019-01-12T16:30:00.921Z,8.00
2019-01-12T16:32:27.372Z,7.90
2019-01-12T16:34:53.832Z,7.90
2019-01-12T16:37:20.289Z,7.80
2019-01-12T16:39:46.773Z,7.70
2019-01-12T16:42:13.612Z,7.90
2019-01-12T16:44:40.082Z,8.00
2019-01-12T16:47:06.518Z,8.10
2019-01-12T16:49:33.094Z,7.70
2019-01-12T16:51:59.652Z,8.00
2019-01-12T16:54:26.132Z,8.10
2019-01-12T16:56:52.595Z,8.10
2019-01-12T16:59:19.067Z,8.10
2019-01-12T17:01:45.525Z,8.00
2019-01-12T17:04:11.972Z,8.10
2019-01-12T17:06:38.462Z,8.10
2019-01-12T17:09:06.509Z,8.10
2019-01-12T17:11:33.085Z,8.40
2019-01-12T17:13:59.638Z,7.80
2019-01-12T17:16:26.247Z,7.80
2019-01-12T17:18:52.688Z,7.90
2019-01-12T17:21:19.160Z,7.80
2019-01-12T17:23:45.713Z,7.80
2019-01-12T17:26:15.212Z,7.80
2019-01-12T17:28:41.660Z,7.90
2019-01-12T17:31:08.146Z,8.00
2019-01-12T17:33:34.597Z,7.90
2019-01-12T17:36:01.072Z,8.10
2019-01-12T17:38:27.771Z,8.00
2019-01-12T17:40:54.140Z,8.10
2019-01-12T17:43:20.599Z,8.40
2019-01-12T17:45:46.976Z,8.30
2019-01-12T17:48:13.543Z,8.30
2019-01-12T17:50:40.295Z,8.20
2019-01-12T17:53:06.978Z,8.20
2019-01-12T17:55:33.423Z,8.40
2019-01-12T17:58:00.028Z,8.30
2019-01-12T18:00:40.482Z,8.30
2019-01-12T18:03:07.157Z,8.10
2019-01-12T18:05:33.617Z,8.30
2019-01-12T18:08:00.308Z,8.20
2019-01-12T18:10:26.862Z,8.10
2019-01-12T18:12:53.307Z,8.30
2019-01-12T18:15:20.000Z,8.40
2019-01-12T18:17:46.451Z,8.30
2019-01-12T18:20:16.741Z,8.10
2019-01-12T18:22:43.351Z,8.30
2019-01-12T18:25:11.273Z,8.10
2019-01-12T18:27:37.725Z,8.30
2019-01-12T18:30:07.994Z,8.10
2019-01-12T18:32:34.544Z,8.40
2019-01-12T18:35:01.134Z,8.60
2019-01-12T18:37:27.589Z,8.30
2019-01-12T18:39:54.152Z,8.50
2019-01-12T18:42:20.612Z,8.10
2019-01-12T18:44:47.096Z,8.30
2019-01-12T18:47:13.551Z,8.40
2019-01-12T18:49:40.055Z,8.00
2019-01-12T18:52:06.727Z,8.10
2019-01-12T18:54:33.188Z,8.10
2019-01-12T18:56:59.760Z,7.80
2019-01-12T18:59:26.260Z,7.80
2019-01-12T19:01:52.704Z,7.80
2019-01-12T19:04:19.384Z,7.80
2019-01-12T19:06:45.960Z,7.90
2019-01-12T19:09:12.446Z,8.00
2019-01-12T19:11:39.079Z,7.60
2019-01-12T19:14:05.464Z,7.70
2019-01-12T19:16:32.135Z,7.70
2019-01-12T19:18:58.689Z,8.00
2019-01-12T19:21:25.268Z,7.50
2019-01-12T19:23:51.724Z,7.40
2019-01-12T19:26:18.302Z,7.70
2019-01-12T19:28:45.000Z,7.40
2019-01-12T19:31:11.572Z,7.60
2019-01-12T19:33:38.105Z,7.20
2019-01-12T19:36:04.577Z,7.60
2019-01-12T19:38:30.941Z,7.40
2019-01-12T19:40:57.513Z,7.40
2019-01-12T19:43:23.994Z,7.40
2019-01-12T19:45:50.528Z,7.70
2019-01-12T19:48:17.028Z,7.60
2019-01-12T19:50:43.751Z,7.40
2019-01-12T19:53:10.456Z,7.50
2019-01-12T19:55:37.285Z,7.30
2019-01-12T19:58:04.231Z,7.60
2019-01-12T20:00:30.800Z,7.50
2019-01-12T20:02:57.400Z,7.70
2019-01-12T20:05:24.140Z,7.80
2019-01-12T20:07:50.538Z,7.50
2019-01-12T20:10:18.273Z,7.50
2019-01-12T20:12:44.735Z,7.80
2019-01-12T20:15:19.938Z,7.70
2019-01-12T20:17:46.656Z,7.90
2019-01-12T20:20:14.315Z,7.80
2019-01-12T20:22:40.868Z,7.50
2019-01-12T20:25:10.085Z,7.50
2019-01-12T20:27:36.592Z,7.50
2019-01-12T20:30:06.939Z,7.50
2019-01-12T20:32:37.480Z,7.50
2019-01-12T20:35:10.511Z,7.40
2019-01-12T20:37:46.806Z,7.40
2019-01-12T20:40:20.168Z,7.40
2019-01-12T20:43:06.685Z,7.50
2019-01-12T20:45:54.382Z,7.50
2019-01-12T20:48:30.543Z,7.40
2019-01-12T20:51:10.228Z,7.50
2019-01-12T20:53:43.565Z,7.40
2019-01-12T20:56:13.840Z,7.50
2019-01-12T20:58:50.003Z,7.50
2019-01-12T21:01:26.309Z,7.50
2019-01-12T21:04:11.456Z,7.70
2019-01-12T21:07:04.172Z,7.70
2019-01-12T21:09:43.397Z,8.00
2019-01-12T21:12:34.820Z,7.50
2019-01-12T21:15:04.736Z,7.50
2019-01-12T21:17:31.220Z,7.50
2019-01-12T21:19:57.840Z,7.70
2019-01-12T21:22:24.597Z,8.00
2019-01-12T21:24:51.073Z,7.80
2019-01-12T21:27:17.743Z,7.50
2019-01-12T21:29:44.483Z,7.70
2019-01-12T21:32:11.172Z,8.00
2019-01-12T21:34:37.711Z,7.60
2019-01-12T21:37:04.497Z,7.70
2019-01-12T21:39:31.144Z,7.50
2019-01-12T21:41:57.815Z,7.70
2019-01-12T21:44:24.302Z,7.40
2019-01-12T21:46:50.959Z,7.70
2019-01-12T21:49:17.536Z,7.60
2019-01-12T21:51:44.089Z,7.90
2019-01-12T21:54:10.627Z,8.00
2019-01-12T21:56:37.614Z,7.50
2019-01-12T21:59:04.385Z,7.50
2019-01-12T22:01:36.194Z,7.70
2019-01-12T22:03:59.641Z,7.70
2019-01-12T22:06:26.408Z,7.70
2019-01-12T22:08:53.260Z,8.00
2019-01-12T22:11:19.929Z,7.70
2019-01-12T22:13:46.396Z,7.90
2019-01-12T22:16:13.078Z,7.70
2019-01-12T22:18:39.659Z,7.70
2019-01-12T22:21:06.209Z,7.80
2019-01-12T22:23:32.796Z,7.70
2019-01-12T22:25:59.257Z,8.10
2019-01-12T22:28:26.072Z,8.00
2019-01-12T22:30:52.559Z,7.80
2019-01-12T22:33:19.127Z,7.70
2019-01-12T22:35:45.711Z,7.70
2019-01-12T22:38:12.268Z,8.00
2019-01-12T22:40:38.856Z,7.70
2019-01-12T22:43:05.508Z,8.10
2019-01-12T22:45:32.335Z,8.00
2019-01-12T22:47:58.884Z,7.70
2019-01-12T22:50:25.587Z,7.80
2019-01-12T22:52:52.172Z,7.80
2019-01-12T22:55:18.732Z,7.80
2019-01-12T22:57:45.208Z,7.70
2019-01-12T23:00:32.216Z,7.90
2019-01-12T23:02:59.374Z,8.00
2019-01-12T23:05:25.963Z,8.10
2019-01-12T23:07:52.415Z,8.10
2019-01-12T23:10:19.048Z,7.80
2019-01-12T23:12:45.623Z,7.80
2019-01-12T23:15:12.488Z,7.80
2019-01-12T23:17:39.065Z,7.70
2019-01-12T23:20:06.764Z,8.00
2019-01-12T23:22:33.245Z,7.70
2019-01-12T23:24:59.795Z,8.10
2019-01-12T23:27:26.205Z,8.30
2019-01-12T23:29:52.739Z,8.00
2019-01-12T23:32:19.229Z,7.70
2019-01-12T23:34:45.767Z,7.80
2019-01-12T23:37:12.291Z,7.80
2019-01-12T23:39:38.700Z,7.80
2019-01-12T23:42:05.285Z,7.80
2019-01-12T23:44:31.881Z,7.80
2019-01-12T23:46:58.340Z,7.70
2019-01-12T23:49:24.925Z,8.00
2019-01-12T23:51:51.471Z,8.10
2019-01-12T23:54:17.959Z,8.30
2019-01-12T23:56:44.415Z,8.40
2019-01-12T23:59:10.996Z,8.30
